Terminal Aerodrome Forecast
Issued by NWS

Home | Current Version | Previous Version | Text Only | Print | Product List | Glossary On
Versions: 1 2 3 4 5 6 7 8 9 10 11 12
000
FTAK31 PANC 281728
TAFAHO
TAF
PAHO 281728Z 2818/2918 VRB03KT P6SM SCT045 OVC070
      TEMPO 2818/2822 5SM -SN
     FM282200 29004KT P6SM -SN BKN040
     FM291500 25009KT P6SM -SN BKN035=

USA.gov is the U.S. government's official web portal to all federal, state and local government web resources and services.